KFKL/FKL METAR and TAF weather

Enter ICAO airport designator
Station Type Date Time Source
KFKL METAR 2022/06/27 18:56 UTC NOAA

KFKL 271856Z AUTO 30009KT 10SM CLR 22/07 A3012 RMK AO2 SLP195 T02170067 $


Station Type Date Time Source
KFKL Decoded METAR 2022/06/27 18:56 UTC NOAA

Franklin, Venango Regional Airport, PA, United States (KFKL) 41-23N 079-52W
Jun 27, 2022 - 02:56 PM EDT / 2022.06.27 1856 UTC
Wind: from the WNW (300 degrees) at 10 MPH (9 KT):0
Visibility: 10 mile(s):0
Sky conditions: clear
Temperature: 71.1 F (21.7 C)
Dew Point: 44.1 F (6.7 C)
Relative Humidity: 37%
Pressure (altimeter): 30.12 in. Hg (1019 hPa)
ob: KFKL 271856Z AUTO 30009KT 10SM CLR 22/07 A3012 RMK AO2 SLP195 T02170067
cycle: 19

Station Type Date Time Source
KFKL TAF 2022/06/27 18:22 UTC NOAA

TAF KFKL 271720Z 2718/2818 32010G17KT P6SM SCT045
FM280200 32003KT P6SM SKC

Example: see airport list